Time;durP1;ratioP1;P1;durP2;ratioP2;P2;SDS_P1;SDS_P2;PMS_P1;PMS_P2;Temp;Humidity;BMP_temperature;BMP_pressure;BME280_temperature;BME280_humidity;BME280_pressure;Samples;Min_cycle;Max_cycle;Signal;HPM_P1;HPM_P2
2023/09/27 00:00:32;;;;;;;0.00;0.00;;;;;;;15.41;100.00;101950.25;5099190;28;20048;-45
2023/09/27 00:03:00;;;;;;;0.00;0.00;;;;;;;15.41;100.00;101944.81;5091077;28;20032;-47
2023/09/27 00:05:26;;;;;;;0.00;0.00;;;;;;;15.37;100.00;101947.03;5095722;28;20084;-45
2023/09/27 00:07:51;;;;;;;0.00;0.00;;;;;;;15.35;100.00;101946.41;5108577;28;20020;-47
2023/09/27 00:10:17;;;;;;;0.00;0.00;;;;;;;15.35;100.00;101953.72;5110745;28;20110;-45
2023/09/27 00:12:42;;;;;;;0.00;0.00;;;;;;;15.34;100.00;101949.31;5111222;28;20024;-45
2023/09/27 00:15:10;;;;;;;0.00;0.00;;;;;;;15.32;100.00;101944.06;5109169;28;20081;-46
2023/09/27 00:17:35;;;;;;;0.00;0.00;;;;;;;15.30;100.00;101956.97;5090183;28;20066;-46
2023/09/27 00:20:00;;;;;;;0.00;0.00;;;;;;;15.29;100.00;101943.59;5090707;28;20101;-45
2023/09/27 00:22:27;;;;;;;0.00;0.00;;;;;;;15.27;100.00;101945.63;5096187;28;20488;-43
2023/09/27 00:24:52;;;;;;;0.00;0.00;;;;;;;15.25;100.00;101942.28;5111176;28;20081;-44
2023/09/27 00:27:18;;;;;;;0.00;0.00;;;;;;;15.25;100.00;101948.56;5110290;28;20023;-45
2023/09/27 00:29:43;;;;;;;0.00;0.00;;;;;;;15.25;100.00;101947.72;5104918;28;20102;-45
2023/09/27 00:32:08;;;;;;;0.00;0.00;;;;;;;15.34;100.00;101958.28;5096466;28;20033;-47
2023/09/27 00:34:34;;;;;;;0.00;0.00;;;;;;;15.24;100.00;101957.69;5093794;28;20039;-49
2023/09/27 00:37:00;;;;;;;0.00;0.00;;;;;;;15.24;100.00;101946.00;5100830;28;20024;-45
2023/09/27 00:39:25;;;;;;;0.00;0.00;;;;;;;15.23;100.00;101944.34;5108985;28;20467;-45
2023/09/27 00:41:50;;;;;;;0.00;0.00;;;;;;;15.14;100.00;101941.72;5106011;28;20044;-42
2023/09/27 00:44:16;;;;;;;0.00;0.00;;;;;;;15.10;100.00;101940.41;5090659;28;20024;-43
2023/09/27 00:46:42;;;;;;;0.00;0.00;;;;;;;15.03;100.00;101939.44;5089626;28;20462;-44
2023/09/27 00:49:08;;;;;;;0.00;0.00;;;;;;;15.04;100.00;101938.44;5088301;28;20024;-44
2023/09/27 00:51:34;;;;;;;0.00;0.00;;;;;;;15.02;100.00;101948.63;5108205;28;20027;-43
2023/09/27 00:54:00;;;;;;;0.00;0.00;;;;;;;15.00;100.00;101938.97;5113009;28;20076;-44
2023/09/27 00:56:25;;;;;;;0.00;0.00;;;;;;;15.04;100.00;101935.72;5109454;28;20015;-44
2023/09/27 00:58:51;;;;;;;0.00;0.00;;;;;;;15.00;100.00;101945.25;5107035;28;20040;-42
2023/09/27 01:01:16;;;;;;;0.00;0.00;;;;;;;14.96;100.00;101951.22;5095716;28;20049;-42
2023/09/27 01:03:42;;;;;;;0.00;0.00;;;;;;;14.95;100.00;101949.53;5108538;28;20031;-42
2023/09/27 01:06:09;;;;;;;0.00;0.00;;;;;;;14.95;100.00;101952.25;5099852;28;20131;-43
2023/09/27 01:08:34;;;;;;;0.00;0.00;;;;;;;14.93;100.00;101947.84;5106376;28;20027;-42
2023/09/27 01:11:01;;;;;;;0.00;0.00;;;;;;;14.91;100.00;101949.06;5109480;28;20325;-42
2023/09/27 01:13:27;;;;;;;0.00;0.00;;;;;;;14.84;100.00;101956.22;5095269;28;20103;-45
2023/09/27 01:15:52;;;;;;;0.00;0.00;;;;;;;14.81;100.00;101951.19;5088885;28;20107;-43
2023/09/27 01:18:18;;;;;;;0.00;0.00;;;;;;;14.82;100.00;101953.69;5103602;28;20474;-46
2023/09/27 01:20:43;;;;;;;0.00;0.00;;;;;;;14.81;100.00;101953.91;5107793;28;20032;-45
2023/09/27 01:23:08;;;;;;;0.00;0.00;;;;;;;14.81;100.00;101940.34;5108914;28;20488;-43
2023/09/27 01:25:39;;;;;;;0.00;0.00;;;;;;;14.81;100.00;101943.06;5109884;28;20098;-44
2023/09/27 01:28:06;;;;;;;0.00;0.00;;;;;;;14.81;100.00;101945.75;5111918;28;20055;-43
2023/09/27 01:30:34;;;;;;;0.00;0.00;;;;;;;14.79;100.00;101947.81;5110768;28;20028;-43
2023/09/27 01:33:02;;;;;;;0.00;0.00;;;;;;;14.78;100.00;101949.69;5096472;28;20027;-43
2023/09/27 01:35:27;;;;;;;0.00;0.00;;;;;;;14.79;100.00;101956.78;5092345;28;20482;-46
2023/09/27 01:37:53;;;;;;;0.00;0.00;;;;;;;14.79;100.00;101961.34;5092987;28;20028;-45
2023/09/27 01:40:22;;;;;;;0.00;0.00;;;;;;;14.75;100.00;101962.75;5102147;28;20541;-43
2023/09/27 01:42:47;;;;;;;0.00;0.00;;;;;;;14.75;100.00;101976.31;5094565;28;20074;-45
2023/09/27 01:45:13;;;;;;;0.00;0.00;;;;;;;14.79;100.00;101969.50;5092943;28;20051;-47
2023/09/27 01:47:39;;;;;;;0.00;0.00;;;;;;;14.82;100.00;101975.38;5106165;28;20139;-45
2023/09/27 01:50:07;;;;;;;0.00;0.00;;;;;;;14.83;100.00;101987.09;5104238;28;20165;-44
2023/09/27 01:52:32;;;;;;;0.00;0.00;;;;;;;14.87;100.00;101982.97;5093583;28;20031;-42
2023/09/27 01:54:58;;;;;;;0.00;0.00;;;;;;;14.87;100.00;101977.56;5100603;28;20016;-45
2023/09/27 01:57:23;;;;;;;0.00;0.00;;;;;;;14.85;100.00;101975.03;5112515;28;20119;-47
2023/09/27 01:59:48;;;;;;;0.00;0.00;;;;;;;14.83;100.00;101981.66;5113266;28;20410;-44
2023/09/27 02:02:14;;;;;;;0.00;0.00;;;;;;;14.83;100.00;101976.25;5095829;28;20123;-45
2023/09/27 02:04:39;;;;;;;0.00;0.00;;;;;;;14.76;100.00;101978.00;5100106;28;20027;-43
2023/09/27 02:07:04;;;;;;;0.00;0.00;;;;;;;14.70;100.00;101984.97;5112809;28;20492;-44
2023/09/27 02:09:30;;;;;;;0.00;0.00;;;;;;;14.71;100.00;101973.94;5114685;27;20081;-44
2023/09/27 02:11:55;;;;;;;0.00;0.00;;;;;;;14.69;100.00;101954.34;5112741;28;20034;-46
2023/09/27 02:14:20;;;;;;;0.00;0.00;;;;;;;14.66;100.00;101957.38;5112824;28;20042;-43
2023/09/27 02:16:47;;;;;;;0.00;0.00;;;;;;;14.63;100.00;101960.47;5113282;28;20066;-46
2023/09/27 02:19:12;;;;;;;0.00;0.00;;;;;;;14.69;100.00;101965.19;5112575;28;20035;-47
2023/09/27 02:21:39;;;;;;;0.00;0.00;;;;;;;14.64;100.00;101958.59;5106054;28;20063;-45
2023/09/27 02:24:08;;;;;;;0.00;0.00;;;;;;;14.61;100.00;101943.56;5092461;28;20020;-46
2023/09/27 02:26:34;;;;;;;0.00;0.00;;;;;;;14.62;100.00;101939.81;5091605;28;20027;-44
2023/09/27 02:29:00;;;;;;;0.00;0.00;;;;;;;14.62;100.00;101947.13;5092424;28;20032;-45
2023/09/27 02:31:25;;;;;;;0.00;0.00;;;;;;;14.61;100.00;101959.81;5102960;28;20048;-42
2023/09/27 02:33:51;;;;;;;0.00;0.00;;;;;;;14.64;100.00;101958.59;5092786;28;20394;-43
2023/09/27 02:36:16;;;;;;;0.00;0.00;;;;;;;14.63;100.00;101968.59;5092109;28;20026;-44
2023/09/27 02:38:42;;;;;;;0.00;0.00;;;;;;;14.72;100.00;101969.41;5098635;28;20044;-45
2023/09/27 02:41:07;;;;;;;0.00;0.00;;;;;;;14.74;100.00;101964.59;5112531;28;20454;-46
2023/09/27 02:43:33;;;;;;;0.00;0.00;;;;;;;14.66;100.00;101960.09;5112288;28;20031;-43
2023/09/27 02:45:58;;;;;;;0.00;0.00;;;;;;;14.73;100.00;101967.53;5102243;28;20418;-41
2023/09/27 02:48:24;;;;;;;0.00;0.00;;;;;;;14.70;100.00;101974.16;5092032;28;20032;-45
2023/09/27 02:50:50;;;;;;;0.00;0.00;;;;;;;14.59;100.00;101970.00;5095684;28;20020;-48
2023/09/27 02:53:16;;;;;;;0.00;0.00;;;;;;;14.57;100.00;101985.59;5105189;28;20032;-44
2023/09/27 02:55:41;;;;;;;0.00;0.00;;;;;;;14.57;100.00;101980.16;5107111;28;20031;-45
2023/09/27 02:58:07;;;;;;;0.00;0.00;;;;;;;14.58;100.00;101983.72;5112340;28;20020;-44
2023/09/27 03:00:34;;;;;;;0.00;0.00;;;;;;;14.60;100.00;101997.94;5112389;28;20047;-43
2023/09/27 03:03:01;;;;;;;0.00;0.00;;;;;;;14.54;100.00;101999.50;5107607;28;20028;-45
2023/09/27 03:05:26;;;;;;;0.00;0.00;;;;;;;14.54;100.00;101998.66;5090668;28;20031;-44
2023/09/27 03:07:52;;;;;;;0.00;0.00;;;;;;;14.58;100.00;101994.53;5092055;28;20028;-47
2023/09/27 03:10:18;;;;;;;0.00;0.00;;;;;;;14.56;100.00;101981.19;5092227;28;20059;-44
2023/09/27 03:12:46;;;;;;;0.00;0.00;;;;;;;14.60;100.00;101974.38;5099736;28;20542;-44
2023/09/27 03:15:12;;;;;;;0.00;0.00;;;;;;;14.47;100.00;101983.06;5105595;28;20077;-46
2023/09/27 03:17:39;;;;;;;0.00;0.00;;;;;;;14.47;100.00;101988.47;5091951;28;20032;-46
2023/09/27 03:20:07;;;;;;;0.00;0.00;;;;;;;14.53;100.00;101988.81;5099206;28;20427;-45
2023/09/27 03:22:32;;;;;;;0.00;0.00;;;;;;;14.63;100.00;101990.25;5111902;28;20535;-45
2023/09/27 03:24:58;;;;;;;0.00;0.00;;;;;;;14.62;100.00;101994.00;5093957;28;20103;-43
2023/09/27 03:27:24;;;;;;;0.00;0.00;;;;;;;14.67;100.00;101994.31;5090517;28;20154;-43
2023/09/27 03:29:50;;;;;;;0.00;0.00;;;;;;;14.66;100.00;102003.44;5098129;28;20016;-46
2023/09/27 03:32:15;;;;;;;0.00;0.00;;;;;;;14.70;100.00;102004.78;5092093;28;20020;-45
2023/09/27 03:34:40;;;;;;;0.00;0.00;;;;;;;14.71;100.00;102006.47;5092725;28;20028;-45
2023/09/27 03:37:06;;;;;;;0.00;0.00;;;;;;;14.71;100.00;102003.75;5111329;28;20110;-46
2023/09/27 03:39:35;;;;;;;0.00;0.00;;;;;;;14.73;100.00;102008.16;5111326;28;20042;-45
2023/09/27 03:42:02;;;;;;;0.00;0.00;;;;;;;14.71;100.00;102009.16;5111750;28;20114;-45
2023/09/27 03:44:27;;;;;;;0.00;0.00;;;;;;;14.74;100.00;101996.28;5111176;28;20079;-43
2023/09/27 03:46:53;;;;;;;0.00;0.00;;;;;;;14.73;100.00;101981.06;5101012;28;20098;-42
2023/09/27 03:49:18;;;;;;;0.00;0.00;;;;;;;14.69;100.00;101981.44;5111181;28;20100;-46
2023/09/27 03:51:44;;;;;;;0.00;0.00;;;;;;;14.68;100.00;101979.72;5111235;28;20020;-44
2023/09/27 03:54:09;;;;;;;0.00;0.00;;;;;;;14.67;100.00;101975.34;5110928;28;20038;-46
2023/09/27 03:56:34;;;;;;;0.00;0.00;;;;;;;14.63;100.00;101971.31;5105513;28;20028;-45
2023/09/27 03:59:00;;;;;;;0.00;0.00;;;;;;;14.62;100.00;101963.38;5100331;28;20070;-47
2023/09/27 04:01:25;;;;;;;0.00;0.00;;;;;;;14.59;100.00;101975.41;5103333;28;20388;-43
2023/09/27 04:03:50;;;;;;;0.00;0.00;;;;;;;14.59;100.00;101978.13;5090521;28;20020;-43
2023/09/27 04:06:16;;;;;;;0.00;0.00;;;;;;;14.59;100.00;101975.41;5095348;28;20627;-45
2023/09/27 04:08:41;;;;;;;0.00;0.00;;;;;;;14.59;100.00;101970.00;5109271;27;20378;-45
2023/09/27 04:11:08;;;;;;;0.00;0.00;;;;;;;14.58;100.00;101970.16;5110558;28;20027;-46
2023/09/27 04:13:34;;;;;;;0.00;0.00;;;;;;;14.57;100.00;101977.44;5103968;28;20023;-44
2023/09/27 04:16:00;;;;;;;0.00;0.00;;;;;;;14.56;100.00;101975.78;5093074;28;20030;-43
2023/09/27 04:18:25;;;;;;;0.00;0.00;;;;;;;14.56;100.00;101972.19;5090900;28;20024;-40
2023/09/27 04:20:51;;;;;;;0.00;0.00;;;;;;;14.53;100.00;101975.28;5099421;28;20030;-45
2023/09/27 04:23:16;;;;;;;0.00;0.00;;;;;;;14.54;100.00;101975.09;5096321;28;20051;-43
2023/09/27 04:25:43;;;;;;;0.00;0.00;;;;;;;14.56;100.00;101964.94;5096895;28;20024;-42
2023/09/27 04:28:09;;;;;;;0.00;0.00;;;;;;;14.58;100.00;101972.88;5111107;28;20023;-46
2023/09/27 04:30:35;;;;;;;0.00;0.00;;;;;;;14.55;100.00;101955.09;5110580;28;20037;-48
2023/09/27 04:33:00;;;;;;;0.00;0.00;;;;;;;14.54;100.00;101961.56;5110682;28;20023;-44
2023/09/27 04:35:25;;;;;;;0.00;0.00;;;;;;;14.53;100.00;101964.44;5107330;28;20158;-42
2023/09/27 04:37:51;;;;;;;0.00;0.00;;;;;;;14.49;100.00;101955.81;5093465;28;20017;-45
2023/09/27 04:40:17;;;;;;;0.00;0.00;;;;;;;14.51;100.00;101964.59;5099775;28;20835;-46
2023/09/27 04:42:43;;;;;;;0.00;0.00;;;;;;;14.53;100.00;101970.69;5111107;28;20023;-44
2023/09/27 04:45:10;;;;;;;0.00;0.00;;;;;;;14.54;100.00;101950.72;5111167;28;20032;-45
2023/09/27 04:47:36;;;;;;;0.00;0.00;;;;;;;14.58;100.00;101935.78;5102267;28;20386;-45
2023/09/27 04:50:02;;;;;;;0.00;0.00;;;;;;;14.52;100.00;101936.47;5108829;28;20028;-44
2023/09/27 04:52:27;;;;;;;0.00;0.00;;;;;;;14.45;100.00;101944.47;5090908;28;20367;-42
2023/09/27 04:54:59;;;;;;;0.00;0.00;;;;;;;14.42;100.00;101944.84;5101386;28;20130;-42
2023/09/27 04:57:24;;;;;;;0.00;0.00;;;;;;;14.41;100.00;101945.88;5107352;28;20126;-44
2023/09/27 04:59:52;;;;;;;0.00;0.00;;;;;;;14.41;100.00;101937.75;5097291;28;20130;-45
2023/09/27 05:02:17;;;;;;;0.00;0.00;;;;;;;14.41;100.00;101936.91;5103897;28;20549;-44
2023/09/27 05:04:43;;;;;;;0.00;0.00;;;;;;;14.41;100.00;101937.75;5114963;28;20046;-44
2023/09/27 05:07:09;;;;;;;0.00;0.00;;;;;;;14.42;100.00;101938.59;5115015;28;20678;-42
2023/09/27 05:09:34;;;;;;;0.00;0.00;;;;;;;14.43;100.00;101946.53;5113302;27;20065;-45
2023/09/27 05:11:59;;;;;;;0.00;0.00;;;;;;;14.42;100.00;101935.88;5106121;28;20111;-43
2023/09/27 05:14:25;;;;;;;0.00;0.00;;;;;;;14.42;100.00;101938.59;5100681;28;20023;-44
2023/09/27 05:16:50;;;;;;;0.00;0.00;;;;;;;14.42;100.00;101946.72;5103498;27;20051;-43
2023/09/27 05:19:15;;;;;;;0.00;0.00;;;;;;;14.40;100.00;101938.78;5112334;28;20023;-46
2023/09/27 05:21:41;;;;;;;0.00;0.00;;;;;;;14.41;100.00;101934.22;5105257;27;20047;-43
2023/09/27 05:24:06;;;;;;;0.00;0.00;;;;;;;14.43;100.00;101927.59;5095391;28;20032;-43
2023/09/27 05:26:32;;;;;;;0.00;0.00;;;;;;;14.46;100.00;101926.38;5098506;28;20079;-42
2023/09/27 05:28:58;;;;;;;0.00;0.00;;;;;;;14.49;100.00;101934.13;5110834;28;20031;-44
2023/09/27 05:31:23;;;;;;;0.00;0.00;;;;;;;14.48;100.00;101927.03;5112794;28;20193;-46
2023/09/27 05:33:49;;;;;;;0.00;0.00;;;;;;;14.48;100.00;101925.19;5104877;27;20051;-42
2023/09/27 05:36:14;;;;;;;0.00;0.00;;;;;;;14.47;100.00;101938.88;5107790;27;20064;-46
2023/09/27 05:38:40;;;;;;;0.00;0.00;;;;;;;14.46;100.00;101939.94;5094421;28;20059;-45
2023/09/27 05:41:05;;;;;;;0.00;0.00;;;;;;;14.45;100.00;101946.34;5111451;28;20019;-46
2023/09/27 05:43:30;;;;;;;0.00;0.00;;;;;;;14.46;100.00;101950.75;5095132;28;20145;-44
2023/09/27 05:45:57;;;;;;;0.00;0.00;;;;;;;14.50;100.00;101954.78;5097653;28;20299;-45
2023/09/27 05:48:22;;;;;;;0.00;0.00;;;;;;;14.53;100.00;101951.72;5097818;28;20074;-45
2023/09/27 05:50:48;;;;;;;0.00;0.00;;;;;;;14.55;100.00;101946.16;5093746;28;20016;-41
2023/09/27 05:53:16;;;;;;;0.00;0.00;;;;;;;14.57;100.00;101942.22;5108868;28;20054;-45
2023/09/27 05:55:42;;;;;;;0.00;0.00;;;;;;;14.62;100.00;101939.81;5113878;28;20501;-43
2023/09/27 05:58:07;;;;;;;0.00;0.00;;;;;;;14.66;100.00;101945.72;5108261;28;20175;-45
2023/09/27 06:00:38;;;;;;;0.00;0.00;;;;;;;14.65;100.00;101946.75;5093231;28;20107;-46
2023/09/27 06:03:07;;;;;;;0.00;0.00;;;;;;;14.67;100.00;101940.13;5097942;28;20027;-44
2023/09/27 06:05:32;;;;;;;0.00;0.00;;;;;;;14.68;100.00;101938.25;5101833;28;20317;-44
2023/09/27 06:07:58;;;;;;;0.00;0.00;;;;;;;14.63;100.00;101933.38;5092107;28;20420;-44
2023/09/27 06:10:24;;;;;;;0.00;0.00;;;;;;;14.62;100.00;101934.41;5098198;28;20024;-43
2023/09/27 06:12:49;;;;;;;0.00;0.00;;;;;;;14.66;100.00;101940.28;5111951;28;20023;-45
2023/09/27 06:15:16;;;;;;;0.00;0.00;;;;;;;14.73;100.00;101935.00;5104403;28;20134;-49
2023/09/27 06:17:42;;;;;;;0.00;0.00;;;;;;;14.88;100.00;101935.88;5092702;28;20120;-45
2023/09/27 06:20:12;;;;;;;0.00;0.00;;;;;;;14.91;100.00;101936.34;5094778;28;20055;-46
2023/09/27 06:22:39;;;;;;;0.00;0.00;;;;;;;14.99;100.00;101919.16;5094190;28;20584;-42
2023/09/27 06:25:05;;;;;;;0.00;0.00;;;;;;;15.08;100.00;101896.34;5111831;28;20040;-47
2023/09/27 06:27:31;;;;;;;0.00;0.00;;;;;;;15.14;100.00;101892.06;5111185;28;20045;-43
2023/09/27 06:29:57;;;;;;;0.00;0.00;;;;;;;15.03;100.00;101890.63;5112571;28;20027;-47
2023/09/27 06:32:22;;;;;;;0.00;0.00;;;;;;;15.06;100.00;101898.44;5110168;28;20054;-42
2023/09/27 06:34:48;;;;;;;0.00;0.00;;;;;;;15.09;100.00;101895.34;5102716;28;20070;-43
2023/09/27 06:37:14;;;;;;;0.00;0.00;;;;;;;15.09;100.00;101906.19;5109056;28;20034;-47
2023/09/27 06:39:41;;;;;;;0.00;0.00;;;;;;;15.07;100.00;101940.78;5089069;28;20564;-45
2023/09/27 06:42:07;;;;;;;0.00;0.00;;;;;;;15.09;100.00;101943.31;5099859;28;20056;-44
2023/09/27 06:44:33;;;;;;;0.00;0.00;;;;;;;15.11;100.00;101955.66;5100227;28;20513;-43
2023/09/27 06:46:59;;;;;;;0.00;0.00;;;;;;;15.13;100.00;101977.97;5099978;28;21291;-44
2023/09/27 06:49:24;;;;;;;0.00;0.00;;;;;;;15.17;100.00;101983.91;5100102;28;20526;-44
2023/09/27 06:51:50;;;;;;;0.00;0.00;;;;;;;15.22;100.00;101999.59;5101871;28;20027;-44
2023/09/27 06:54:15;;;;;;;0.00;0.00;;;;;;;15.27;100.00;102013.44;5100572;27;20159;-43
2023/09/27 06:56:42;;;;;;;0.00;0.00;;;;;;;15.40;100.00;102016.34;5099208;28;20466;-46
2023/09/27 06:59:07;;;;;;;0.00;0.00;;;;;;;15.44;100.00;102023.13;5100213;28;20130;-46
2023/09/27 07:01:33;;;;;;;0.00;0.00;;;;;;;15.46;100.00;102021.06;5101145;28;20138;-48
2023/09/27 07:03:58;;;;;;;0.00;0.00;;;;;;;15.52;100.00;102030.34;5100491;28;20034;-44
2023/09/27 07:06:24;;;;;;;0.00;0.00;;;;;;;15.57;100.00;102020.59;5103661;28;20035;-45
2023/09/27 07:08:52;;;;;;;0.00;0.00;;;;;;;15.62;100.00;102019.22;5107892;27;20016;-44
2023/09/27 07:11:19;;;;;;;0.00;0.00;;;;;;;15.72;100.00;102014.38;5105219;28;20032;-43
2023/09/27 07:13:45;;;;;;;0.00;0.00;;;;;;;15.87;100.00;102009.75;5107005;27;20023;-46
2023/09/27 07:16:26;;;;;;;0.00;0.00;;;;;;;15.97;100.00;102013.03;5100696;28;20073;-44
2023/09/27 07:18:56;;;;;;;0.00;0.00;;;;;;;16.11;100.00;102007.78;5098066;27;20031;-44
2023/09/27 07:21:23;;;;;;;0.00;0.00;;;;;;;16.25;100.00;102009.63;5102189;28;20441;-45
2023/09/27 07:23:49;;;;;;;0.00;0.00;;;;;;;16.37;100.00;101999.94;5103404;28;20024;-43
2023/09/27 07:26:16;;;;;;;0.00;0.00;;;;;;;16.59;100.00;101987.22;5106506;28;20059;-46
2023/09/27 07:28:41;;;;;;;0.00;0.00;;;;;;;16.83;100.00;101985.19;5099340;28;20046;-44
2023/09/27 07:31:07;;;;;;;0.00;0.00;;;;;;;16.89;100.00;102001.53;5100290;28;20027;-46
2023/09/27 07:33:33;;;;;;;0.00;0.00;;;;;;;16.77;100.00;101991.34;5107085;27;20049;-43
2023/09/27 07:35:59;;;;;;;0.00;0.00;;;;;;;16.84;100.00;101998.56;5100687;28;20035;-41
2023/09/27 07:38:25;;;;;;;0.00;0.00;;;;;;;16.82;100.00;101994.34;5104469;28;20386;-45
2023/09/27 07:40:50;;;;;;;0.00;0.00;;;;;;;16.84;100.00;101997.72;5106066;27;20080;-45
2023/09/27 07:43:16;;;;;;;0.00;0.00;;;;;;;16.86;100.00;101995.66;5102393;27;20024;-45
2023/09/27 07:45:47;;;;;;;0.00;0.00;;;;;;;16.92;100.00;101994.03;5102907;27;20074;-45
2023/09/27 07:48:12;;;;;;;0.00;0.00;;;;;;;17.11;100.00;101996.94;5105312;28;20031;-43
2023/09/27 07:50:39;;;;;;;0.00;0.00;;;;;;;17.39;100.00;102006.13;5105830;27;20531;-46
2023/09/27 07:53:06;;;;;;;0.00;0.00;;;;;;;17.66;100.00;102007.13;5105415;28;20051;-44
2023/09/27 07:55:33;;;;;;;0.00;0.00;;;;;;;17.67;100.00;101998.75;5102435;28;20046;-43
2023/09/27 07:57:59;;;;;;;0.00;0.00;;;;;;;17.72;100.00;101996.28;5100119;28;20057;-46
2023/09/27 08:00:28;;;;;;;0.00;0.00;;;;;;;17.77;100.00;101985.63;5097668;28;20043;-43
2023/09/27 08:02:55;;;;;;;0.00;0.00;;;;;;;17.80;100.00;101975.38;5102739;28;20472;-45
2023/09/27 08:05:22;;;;;;;0.00;0.00;;;;;;;17.73;100.00;101976.16;5099989;28;20470;-45
2023/09/27 08:07:48;;;;;;;0.00;0.00;;;;;;;17.70;100.00;101970.28;5100730;27;20036;-43
2023/09/27 08:10:15;;;;;;;0.00;0.00;;;;;;;17.62;100.00;101974.03;5101836;27;20110;-44
2023/09/27 08:12:41;;;;;;;0.00;0.00;;;;;;;17.53;100.00;101976.03;5105529;28;20074;-45
2023/09/27 08:15:07;;;;;;;0.00;0.00;;;;;;;17.52;100.00;101992.59;5105703;28;20062;-45
2023/09/27 08:17:33;;;;;;;0.00;0.00;;;;;;;17.38;100.00;102005.28;5103653;28;20039;-47
2023/09/27 08:20:05;;;;;;;0.00;0.00;;;;;;;17.36;100.00;101990.19;5102835;28;20463;-44
2023/09/27 08:22:33;;;;;;;0.00;0.00;;;;;;;17.34;100.00;101977.59;5104768;28;20120;-47
2023/09/27 08:24:58;;;;;;;0.00;0.00;;;;;;;17.39;100.00;101973.47;5105922;28;20027;-42
2023/09/27 08:27:24;;;;;;;0.00;0.00;;;;;;;17.43;100.00;101970.16;5098632;28;20046;-44
2023/09/27 08:29:50;;;;;;;0.00;0.00;;;;;;;17.41;100.00;101969.50;5099905;28;20023;-45
2023/09/27 08:32:15;;;;;;;0.00;0.00;;;;;;;17.34;100.00;101971.34;5101880;28;20111;-45
2023/09/27 08:34:40;;;;;;;0.00;0.00;;;;;;;17.38;100.00;101960.88;5103179;28;20052;-45
2023/09/27 08:37:06;;;;;;;0.00;0.00;;;;;;;17.42;100.00;101960.28;5103253;28;20506;-45
2023/09/27 08:39:31;;;;;;;0.00;0.00;;;;;;;17.46;100.00;101958.03;5103081;28;20059;-45
2023/09/27 08:42:01;;;;;;;0.00;0.00;;;;;;;17.55;100.00;101959.53;5103463;28;20035;-42
2023/09/27 08:44:26;;;;;;;0.00;0.00;;;;;;;17.49;100.00;101988.38;5102856;28;20718;-44
2023/09/27 08:46:54;;;;;;;0.00;0.00;;;;;;;17.52;100.00;102000.75;5102900;28;20105;-45
2023/09/27 08:49:20;;;;;;;0.00;0.00;;;;;;;17.51;100.00;101994.47;5100094;28;20163;-46
2023/09/27 08:51:46;;;;;;;0.00;0.00;;;;;;;17.47;100.00;101997.78;5104117;28;20023;-45
2023/09/27 08:54:16;;;;;;;0.00;0.00;;;;;;;17.40;100.00;101986.84;5098604;28;20047;-46
2023/09/27 08:56:44;;;;;;;0.00;0.00;;;;;;;17.45;100.00;101972.66;5101786;28;20687;-45
2023/09/27 08:59:10;;;;;;;0.00;0.00;;;;;;;17.53;100.00;101992.38;5103110;28;20469;-47
2023/09/27 09:01:37;;;;;;;0.00;0.00;;;;;;;17.62;100.00;102001.25;5096670;28;20080;-46
2023/09/27 09:04:02;;;;;;;0.00;0.00;;;;;;;17.67;100.00;102003.38;5100713;28;20040;-45
2023/09/27 09:06:28;;;;;;;0.00;0.00;;;;;;;17.72;100.00;102007.16;5098592;28;20032;-45
2023/09/27 09:08:53;;;;;;;0.00;0.00;;;;;;;17.81;100.00;101993.41;5102803;28;20034;-45
2023/09/27 09:11:19;;;;;;;0.00;0.00;;;;;;;17.81;100.00;101980.63;5103821;28;20036;-45
2023/09/27 09:14:05;;;;;;;0.00;0.00;;;;;;;17.88;100.00;101957.00;5103995;28;20027;-49
2023/09/27 09:16:39;;;;;;;0.00;0.00;;;;;;;18.00;100.00;101949.06;5103139;28;20082;-48
2023/09/27 09:19:25;;;;;;;0.00;0.00;;;;;;;18.11;100.00;101970.28;5097887;28;20071;-47
2023/09/27 09:22:08;;;;;;;0.00;0.00;;;;;;;18.16;100.00;101965.03;5102747;28;20024;-45
2023/09/27 09:24:41;;;;;;;0.00;0.00;;;;;;;18.24;100.00;101983.09;5103314;28;20504;-44
2023/09/27 09:27:13;;;;;;;0.00;0.00;;;;;;;18.31;100.00;101956.72;5099748;28;20067;-43
2023/09/27 09:29:46;;;;;;;0.00;0.00;;;;;;;18.69;100.00;101958.03;5099806;28;20309;-45
2023/09/27 09:32:18;;;;;;;0.00;0.00;;;;;;;18.80;100.00;101965.59;5104284;28;20023;-46
2023/09/27 09:34:44;;;;;;;0.00;0.00;;;;;;;18.91;100.00;101945.06;5106454;28;20028;-45
2023/09/27 09:37:23;;;;;;;0.00;0.00;;;;;;;18.98;100.00;101933.06;5102401;28;20115;-43
2023/09/27 09:39:50;;;;;;;0.00;0.00;;;;;;;18.83;100.00;101910.66;5102756;28;20466;-44
2023/09/27 09:42:34;;;;;;;0.00;0.00;;;;;;;18.86;100.00;101915.69;5102609;28;20355;-45
2023/09/27 09:45:06;;;;;;;0.00;0.00;;;;;;;18.83;100.00;101905.22;5105831;28;20031;-43
2023/09/27 09:47:35;;;;;;;0.00;0.00;;;;;;;18.81;100.00;101907.31;5106135;28;20047;-44
2023/09/27 09:50:00;;;;;;;0.00;0.00;;;;;;;18.89;100.00;101904.34;5102955;28;20052;-43
2023/09/27 09:52:28;;;;;;;0.00;0.00;;;;;;;18.80;100.00;101894.69;5107605;28;20462;-42
2023/09/27 09:54:57;;;;;;;0.00;0.00;;;;;;;18.84;100.00;101869.53;5105445;28;20270;-47
2023/09/27 09:57:25;;;;;;;0.00;0.00;;;;;;;18.99;100.00;101849.38;5108171;28;20092;-45
2023/09/27 09:59:54;;;;;;;0.00;0.00;;;;;;;18.93;100.00;101844.75;5104444;28;20040;-45
2023/09/27 10:02:23;;;;;;;0.00;0.00;;;;;;;18.89;100.00;101848.97;5107584;27;20027;-45
2023/09/27 10:04:55;;;;;;;0.00;0.00;;;;;;;18.91;100.00;101853.16;5104384;28;20471;-46
2023/09/27 10:07:21;;;;;;;0.00;0.00;;;;;;;18.88;100.00;101842.69;5100721;28;20054;-44
2023/09/27 10:09:47;;;;;;;0.00;0.00;;;;;;;19.02;100.00;101849.78;5101922;27;20386;-45
2023/09/27 10:12:13;;;;;;;0.00;0.00;;;;;;;18.98;100.00;101842.22;5104500;27;20523;-46
2023/09/27 10:14:39;;;;;;;0.00;0.00;;;;;;;19.07;100.00;101849.97;5105994;27;20039;-42
2023/09/27 10:17:04;;;;;;;0.00;0.00;;;;;;;19.18;100.00;101850.38;5106426;27;20028;-44
2023/09/27 10:19:29;;;;;;;0.00;0.00;;;;;;;19.17;100.00;101846.81;5104562;28;20035;-45
2023/09/27 10:22:05;;;;;;;0.00;0.00;;;;;;;19.15;100.00;101858.97;5110163;27;20484;-47
2023/09/27 10:24:34;;;;;;;0.00;0.00;;;;;;;19.21;100.00;101844.47;5105068;28;20592;-43
2023/09/27 10:26:59;;;;;;;0.00;0.00;;;;;;;19.44;100.00;101842.06;5100721;28;20706;-45
2023/09/27 10:29:24;;;;;;;0.00;0.00;;;;;;;19.46;100.00;101834.50;5106032;27;20134;-45
2023/09/27 10:32:02;;;;;;;0.00;0.00;;;;;;;19.60;100.00;101829.00;5106659;28;20085;-44
2023/09/27 10:34:27;;;;;;;0.00;0.00;;;;;;;19.64;100.00;101819.28;5105540;28;20112;-44
2023/09/27 10:36:53;;;;;;;0.00;0.00;;;;;;;19.80;100.00;101839.81;5104568;28;20031;-42
2023/09/27 10:39:19;;;;;;;0.00;0.00;;;;;;;20.02;100.00;101838.44;5107129;28;20047;-44
2023/09/27 10:41:48;;;;;;;0.00;0.00;;;;;;;20.38;100.00;101831.44;5102044;28;20029;-46
2023/09/27 10:44:29;;;;;;;0.00;0.00;;;;;;;20.51;100.00;101833.19;5102927;27;20470;-41
2023/09/27 10:46:56;;;;;;;0.00;0.00;;;;;;;20.11;100.00;101830.78;5100711;28;20028;-46
2023/09/27 10:49:24;;;;;;;0.00;0.00;;;;;;;20.31;100.00;101812.34;5100749;28;20028;-44
2023/09/27 10:51:50;;;;;;;0.00;0.00;;;;;;;20.47;100.00;101812.84;5105212;28;20092;-42
2023/09/27 10:54:15;;;;;;;0.00;0.00;;;;;;;20.39;100.00;101808.50;5103392;28;20493;-43
2023/09/27 10:56:44;;;;;;;0.00;0.00;;;;;;;20.27;100.00;101813.84;5106912;28;20043;-46
2023/09/27 10:59:10;;;;;;;0.00;0.00;;;;;;;20.32;100.00;101802.25;5107414;28;20035;-44
2023/09/27 11:01:35;;;;;;;0.00;0.00;;;;;;;20.57;100.00;101799.53;5106162;28;20413;-44
2023/09/27 11:04:03;;;;;;;0.00;0.00;;;;;;;20.25;100.00;101804.19;5105005;28;20037;-46
2023/09/27 11:06:31;;;;;;;0.00;0.00;;;;;;;20.38;100.00;101802.19;5106163;28;20538;-43
2023/09/27 11:09:06;;;;;;;0.00;0.00;;;;;;;20.44;100.00;101792.25;5106891;28;20023;-44
2023/09/27 11:11:32;;;;;;;0.00;0.00;;;;;;;20.39;100.00;101795.66;5107188;28;20037;-42
2023/09/27 11:13:57;;;;;;;0.00;0.00;;;;;;;20.62;100.00;101794.22;5107057;27;20032;-45